Saint Anne, Missouri
Current Conditions -  °F | °C
As of 7:51 AM on Thursday 30 Oct 2014 (Local Time) from KSTL Reporting Station
Scattered Clouds Scattered Clouds  
Wind Chill: 39°   Ceiling: Unl
Heat Index: 42°   Visibility: 10mi
Dew Point: 36°   Wind: 5mph
Humidity: 79%   Direction: 110°ESE
Pressure: 30.15"   Gusts: NA
Location:  38.7263°N, 90.3885°W
Report Text: KSTL 301251Z 11004KT 10SM SCT100 SCT200 06/02 A3015 RMK AO2 SLP211 T00560022
Loading
Personal Weather Stations






























Interactive Weather Map New forecast layout! Learn more

10-Day Weather Forecast

Advertisements
Track Severe Weather on mobile